Time;durP1;ratioP1;P1;durP2;ratioP2;P2;SDS_P1;SDS_P2;PMS_P1;PMS_P2;Temp;Humidity;BMP_temperature;BMP_pressure;BME280_temperature;BME280_humidity;BME280_pressure;Samples;Min_cycle;Max_cycle;Signal;HPM_P1;HPM_P2
2021/08/28 05:25:33;;;;;;;17.38;11.23;;;;;;;;;;5115074;28;20050;-62
2021/08/28 05:27:59;;;;;;;15.93;11.30;;;;;;;;;;5095411;28;20051;-62
2021/08/28 05:30:25;;;;;;;18.35;12.55;;;;;;;;;;5096388;28;20047;-61
2021/08/28 05:32:50;;;;;;;19.63;12.85;;;;;;;;;;5096028;28;20550;-61
2021/08/28 05:35:16;;;;;;;21.63;13.43;;;;;;;;;;5096185;28;20047;-62
2021/08/28 05:38:04;;;;;;;30.10;18.75;;;;;;;;;;5098166;28;20473;-61
2021/08/28 05:40:33;;;;;;;22.50;14.52;;;;;;;;;;5096410;28;20047;-61
2021/08/28 05:43:00;;;;;;;21.33;13.20;;;;;;;;;;5096347;28;20028;-62
2021/08/28 05:45:31;;;;;;;32.47;18.63;;;;;;;;;;5079728;28;20105;-62
2021/08/28 05:47:57;;;;;;;17.85;12.52;;;;;;;;;;5095983;28;20031;-71
2021/08/28 05:50:24;;;;;;;16.40;11.43;;;;;;;;;;5095714;28;20043;-71
2021/08/28 05:52:50;;;;;;;16.83;10.73;;;;;;;;;;5078767;28;20016;-72
2021/08/28 05:55:16;;;;;;;27.98;15.70;;;;;;;;;;5095963;28;20046;-62
2021/08/28 05:57:42;;;;;;;15.23;10.55;;;;;;;;;;5096073;28;20027;-62
2021/08/28 06:00:09;;;;;;;13.50;8.85;;;;;;;;;;5095749;28;20032;-62
2021/08/28 06:02:40;;;;;;;12.80;8.90;;;;;;;;;;5114159;28;20019;-62
2021/08/28 06:05:08;;;;;;;14.05;9.32;;;;;;;;;;5095859;28;20036;-62
2021/08/28 06:08:12;;;;;;;11.00;7.97;;;;;;;;;;5031489;28;20029;-62
2021/08/28 06:11:15;;;;;;;11.40;7.97;;;;;;;;;;5031249;28;20045;-61
2021/08/28 06:14:04;;;;;;;11.50;8.80;;;;;;;;;;5092938;28;20039;-62
2021/08/28 06:16:40;;;;;;;11.98;9.10;;;;;;;;;;5095697;28;20036;-62
2021/08/28 06:19:14;;;;;;;12.98;9.35;;;;;;;;;;5095193;28;20126;-62
2021/08/28 06:21:40;;;;;;;18.85;11.43;;;;;;;;;;5095529;28;20070;-62
2021/08/28 06:24:08;;;;;;;12.95;8.73;;;;;;;;;;5095453;28;20385;-61
2021/08/28 06:26:34;;;;;;;12.57;8.55;;;;;;;;;;5113184;28;20473;-61
2021/08/28 06:29:04;;;;;;;10.90;8.05;;;;;;;;;;5095647;28;20167;-62
2021/08/28 06:31:31;;;;;;;13.82;8.43;;;;;;;;;;5095591;28;20089;-62
2021/08/28 06:33:57;;;;;;;12.45;8.05;;;;;;;;;;5095717;28;20136;-62
2021/08/28 06:36:25;;;;;;;11.32;8.32;;;;;;;;;;5099812;28;20070;-61
2021/08/28 06:39:09;;;;;;;14.60;9.55;;;;;;;;;;5118362;28;20039;-62
2021/08/28 06:41:53;;;;;;;17.70;11.82;;;;;;;;;;5118279;28;20038;-61
2021/08/28 06:44:37;;;;;;;16.45;9.77;;;;;;;;;;5118180;28;20112;-61
2021/08/28 06:47:21;;;;;;;15.32;10.35;;;;;;;;;;5118176;28;20082;-61
2021/08/28 06:50:05;;;;;;;16.92;10.10;;;;;;;;;;5118109;28;20085;-61
2021/08/28 06:52:50;;;;;;;18.52;10.13;;;;;;;;;;5118180;28;20073;-62
2021/08/28 06:55:39;;;;;;;15.63;8.63;;;;;;;;;;5088121;28;20031;-62
2021/08/28 06:58:23;;;;;;;18.35;9.60;;;;;;;;;;5117948;28;20043;-62
2021/08/28 07:01:07;;;;;;;13.07;9.32;;;;;;;;;;5117818;28;20104;-61
2021/08/28 07:04:08;;;;;;;;;;;;;;;;;;5055138;28;20052;-62
2021/08/28 07:06:52;;;;;;;17.02;9.93;;;;;;;;;;5112495;28;19957;-62
2021/08/28 07:09:18;;;;;;;21.13;10.55;;;;;;;;;;5117340;28;20028;-61
2021/08/28 07:11:43;;;;;;;18.50;10.13;;;;;;;;;;5099036;28;20035;-62
2021/08/28 07:14:09;;;;;;;16.42;9.80;;;;;;;;;;5117319;28;20039;-62
2021/08/28 07:16:34;;;;;;;16.33;10.25;;;;;;;;;;5117086;28;20084;-62
2021/08/28 07:19:00;;;;;;;16.67;9.32;;;;;;;;;;5098869;28;20031;-62
2021/08/28 07:21:26;;;;;;;17.25;9.57;;;;;;;;;;5099038;28;20023;-62
2021/08/28 07:23:51;;;;;;;14.13;9.23;;;;;;;;;;5098649;28;20048;-62
2021/08/28 07:26:29;;;;;;;15.88;8.70;;;;;;;;;;5083212;28;20044;-62
2021/08/28 07:29:16;;;;;;;16.15;8.65;;;;;;;;;;5116937;28;20047;-62
2021/08/28 07:31:42;;;;;;;20.35;9.48;;;;;;;;;;5116792;28;20043;-62
2021/08/28 07:34:07;;;;;;;12.65;8.10;;;;;;;;;;5098015;28;20034;-72
2021/08/28 07:36:33;;;;;;;13.88;8.25;;;;;;;;;;5098356;28;20054;-71
2021/08/28 07:39:00;;;;;;;14.38;7.88;;;;;;;;;;5098609;28;20373;-62
2021/08/28 07:41:26;;;;;;;15.60;8.02;;;;;;;;;;5098575;28;20126;-62
2021/08/28 07:43:52;;;;;;;10.70;6.50;;;;;;;;;;5098648;28;20444;-62
2021/08/28 07:46:18;;;;;;;12.55;6.63;;;;;;;;;;5097915;28;20039;-62
2021/08/28 07:48:55;;;;;;;14.63;7.80;;;;;;;;;;5098163;28;20036;-62
2021/08/28 07:51:21;;;;;;;15.80;7.15;;;;;;;;;;5116795;28;20126;-62
2021/08/28 07:53:46;;;;;;;13.25;6.53;;;;;;;;;;5098347;28;20030;-62
2021/08/28 07:56:13;;;;;;;10.07;7.20;;;;;;;;;;5098259;28;20056;-62
2021/08/28 07:58:39;;;;;;;14.07;6.78;;;;;;;;;;5116565;28;20066;-62
2021/08/28 08:01:05;;;;;;;20.67;8.02;;;;;;;;;;5098271;28;20039;-62
2021/08/28 08:03:41;;;;;;;10.40;6.15;;;;;;;;;;5098241;28;20032;-63
2021/08/28 08:06:26;;;;;;;10.55;6.75;;;;;;;;;;5116991;28;20051;-62
2021/08/28 08:08:51;;;;;;;9.93;6.35;;;;;;;;;;5116156;28;20093;-62
2021/08/28 08:11:35;;;;;;;11.45;6.80;;;;;;;;;;5116482;28;20436;-62
2021/08/28 08:14:21;;;;;;;15.75;7.35;;;;;;;;;;5072923;28;20119;-62
2021/08/28 08:17:07;;;;;;;16.77;8.00;;;;;;;;;;5049459;28;20402;-72
2021/08/28 08:19:51;;;;;;;18.00;9.32;;;;;;;;;;5096275;28;20082;-72
2021/08/28 08:22:35;;;;;;;13.45;7.75;;;;;;;;;;5080838;28;20063;-72
2021/08/28 08:25:39;;;;;;;7.68;4.78;;;;;;;;;;5033676;28;20041;-72
2021/08/28 08:28:28;;;;;;;12.98;6.20;;;;;;;;;;5024994;28;20053;-72
2021/08/28 08:31:13;;;;;;;11.38;6.47;;;;;;;;;;5084328;28;20051;-71
2021/08/28 08:33:39;;;;;;;14.55;6.47;;;;;;;;;;5077272;28;20040;-72
2021/08/28 08:36:09;;;;;;;9.70;6.53;;;;;;;;;;5097290;28;20047;-72
2021/08/28 08:38:34;;;;;;;11.98;5.93;;;;;;;;;;5096163;28;20265;-72
2021/08/28 08:41:00;;;;;;;8.35;5.78;;;;;;;;;;5082924;28;20027;-71
2021/08/28 08:43:26;;;;;;;7.65;4.50;;;;;;;;;;5096755;28;20041;-72
2021/08/28 08:45:53;;;;;;;6.72;4.40;;;;;;;;;;5097071;28;20031;-72
2021/08/28 08:48:21;;;;;;;7.37;4.83;;;;;;;;;;5097352;28;20044;-72
2021/08/28 08:50:47;;;;;;;3.97;3.58;;;;;;;;;;5115210;28;20024;-72
2021/08/28 08:53:17;;;;;;;6.03;2.72;;;;;;;;;;5097483;28;20035;-72
2021/08/28 08:55:47;;;;;;;4.50;3.00;;;;;;;;;;5097325;28;20024;-71
2021/08/28 08:58:15;;;;;;;3.20;2.13;;;;;;;;;;5095494;28;20142;-72
2021/08/28 09:00:47;;;;;;;3.72;3.28;;;;;;;;;;5100176;28;20060;-72
2021/08/28 09:03:29;;;;;;;5.32;3.60;;;;;;;;;;5078091;28;20047;-72
2021/08/28 09:06:02;;;;;;;5.57;3.20;;;;;;;;;;5073432;28;20051;-71
2021/08/28 09:08:31;;;;;;;2.65;2.42;;;;;;;;;;5075912;28;20131;-72
2021/08/28 09:10:57;;;;;;;1.88;1.40;;;;;;;;;;5075896;28;20592;-71
2021/08/28 09:13:23;;;;;;;1.50;1.40;;;;;;;;;;5094421;28;20036;-72
2021/08/28 09:15:57;;;;;;;3.22;2.08;;;;;;;;;;5094196;28;20055;-71
2021/08/28 09:18:23;;;;;;;2.15;1.80;;;;;;;;;;5094334;28;20078;-72
2021/08/28 09:20:49;;;;;;;2.17;1.80;;;;;;;;;;5076169;28;20393;-71
2021/08/28 09:23:16;;;;;;;1.58;1.48;;;;;;;;;;5076082;28;20120;-72
2021/08/28 09:25:42;;;;;;;3.42;2.10;;;;;;;;;;5093993;28;20063;-72
2021/08/28 09:28:08;;;;;;;1.75;1.65;;;;;;;;;;5093833;28;20052;-62
2021/08/28 09:30:35;;;;;;;2.25;1.30;;;;;;;;;;5093964;28;20101;-62
2021/08/28 09:33:02;;;;;;;1.95;1.75;;;;;;;;;;5094006;28;20032;-63
2021/08/28 09:35:29;;;;;;;1.40;1.30;;;;;;;;;;5093940;28;20020;-62
2021/08/28 09:38:02;;;;;;;1.45;1.35;;;;;;;;;;5094044;28;20040;-62
2021/08/28 09:40:30;;;;;;;3.45;1.60;;;;;;;;;;5093797;28;20034;-62
2021/08/28 09:42:56;;;;;;;2.25;1.42;;;;;;;;;;5093740;28;20020;-62
2021/08/28 09:45:23;;;;;;;1.08;1.00;;;;;;;;;;5093733;28;20044;-62
2021/08/28 09:47:49;;;;;;;1.30;0.90;;;;;;;;;;5093679;28;20413;-63
2021/08/28 09:50:22;;;;;;;1.60;1.50;;;;;;;;;;5075371;28;20043;-63
2021/08/28 09:52:49;;;;;;;1.88;1.48;;;;;;;;;;5093697;28;20028;-61
2021/08/28 09:55:14;;;;;;;1.30;1.20;;;;;;;;;;5093630;28;20028;-62
2021/08/28 09:57:40;;;;;;;0.80;0.80;;;;;;;;;;5093556;28;20168;-62
2021/08/28 10:00:06;;;;;;;1.60;1.50;;;;;;;;;;5093491;28;20122;-61
2021/08/28 10:02:37;;;;;;;1.50;1.40;;;;;;;;;;5093578;28;20086;-62
2021/08/28 10:05:03;;;;;;;1.33;1.23;;;;;;;;;;5075270;28;20040;-62
2021/08/28 10:07:30;;;;;;;1.95;1.10;;;;;;;;;;5092856;28;20024;-62
2021/08/28 10:10:00;;;;;;;1.90;1.20;;;;;;;;;;5093097;28;20086;-62
2021/08/28 10:12:26;;;;;;;1.05;1.02;;;;;;;;;;5093159;28;20458;-62
2021/08/28 10:14:52;;;;;;;1.35;1.10;;;;;;;;;;5093378;28;20107;-62
2021/08/28 10:17:18;;;;;;;1.00;0.90;;;;;;;;;;5075255;28;20032;-62
2021/08/28 10:19:47;;;;;;;1.30;1.05;;;;;;;;;;5093256;28;20020;-62
2021/08/28 10:22:14;;;;;;;1.10;0.95;;;;;;;;;;5093271;28;20040;-61
2021/08/28 10:24:41;;;;;;;2.25;1.38;;;;;;;;;;5093147;28;20044;-62
2021/08/28 10:27:07;;;;;;;1.33;1.10;;;;;;;;;;5092751;28;20478;-62
2021/08/28 10:29:32;;;;;;;1.10;1.00;;;;;;;;;;5075034;28;20044;-62
2021/08/28 10:31:58;;;;;;;0.90;0.90;;;;;;;;;;5091784;28;20083;-62
2021/08/28 10:34:24;;;;;;;1.17;1.00;;;;;;;;;;5093129;28;20478;-61
2021/08/28 10:36:51;;;;;;;0.85;0.85;;;;;;;;;;5093113;28;20028;-61
2021/08/28 10:39:17;;;;;;;1.00;1.00;;;;;;;;;;5093036;28;20031;-61
2021/08/28 10:41:42;;;;;;;1.10;1.00;;;;;;;;;;5093050;28;20032;-62
2021/08/28 10:44:08;;;;;;;1.13;1.05;;;;;;;;;;5092929;28;20085;-62
2021/08/28 10:46:34;;;;;;;1.50;1.15;;;;;;;;;;5074775;28;20086;-62
2021/08/28 10:49:08;;;;;;;1.20;1.10;;;;;;;;;;5074810;28;20044;-63
2021/08/28 10:51:35;;;;;;;1.10;0.98;;;;;;;;;;5074801;28;20540;-62
2021/08/28 10:54:01;;;;;;;2.40;0.88;;;;;;;;;;5092994;28;20389;-62
2021/08/28 10:56:42;;;;;;;0.82;0.82;;;;;;;;;;5092844;28;20031;-62
2021/08/28 10:59:28;;;;;;;0.95;0.93;;;;;;;;;;5092852;28;20032;-62
2021/08/28 11:02:00;;;;;;;1.05;1.05;;;;;;;;;;5092207;28;20071;-62
2021/08/28 11:04:29;;;;;;;1.10;0.98;;;;;;;;;;5092787;28;20375;-62
2021/08/28 11:07:14;;;;;;;1.30;1.00;;;;;;;;;;5091844;28;20448;-62
2021/08/28 11:09:58;;;;;;;1.45;1.17;;;;;;;;;;5074767;28;20485;-61
2021/08/28 11:12:25;;;;;;;0.98;0.98;;;;;;;;;;5092702;28;20034;-62
2021/08/28 11:14:51;;;;;;;1.63;0.80;;;;;;;;;;5093006;28;20111;-62
2021/08/28 11:17:16;;;;;;;2.03;1.20;;;;;;;;;;5093054;28;20441;-62
2021/08/28 11:19:50;;;;;;;1.42;1.30;;;;;;;;;;5092923;28;20481;-62
2021/08/28 11:22:22;;;;;;;1.00;1.00;;;;;;;;;;5078648;28;20485;-62
2021/08/28 11:24:57;;;;;;;0.93;0.90;;;;;;;;;;5096646;28;20055;-62
2021/08/28 11:27:43;;;;;;;2.03;1.30;;;;;;;;;;5096197;28;20040;-62
2021/08/28 11:30:10;;;;;;;1.02;0.88;;;;;;;;;;5077962;28;20040;-63
2021/08/28 11:32:36;;;;;;;3.50;1.45;;;;;;;;;;5078299;28;20486;-61
2021/08/28 11:35:02;;;;;;;2.05;1.25;;;;;;;;;;5096752;28;20066;-62
2021/08/28 11:37:31;;;;;;;3.20;1.70;;;;;;;;;;5078661;28;20032;-62
2021/08/28 11:40:27;;;;;;;1.52;1.40;;;;;;;;;;5096385;28;20036;-62
2021/08/28 11:42:53;;;;;;;1.20;1.10;;;;;;;;;;5069336;28;20402;-62
2021/08/28 11:45:19;;;;;;;1.73;1.02;;;;;;;;;;5078205;28;20028;-63
2021/08/28 11:47:45;;;;;;;1.88;1.45;;;;;;;;;;5096200;28;20126;-62
2021/08/28 11:50:11;;;;;;;1.10;1.10;;;;;;;;;;5096252;28;20078;-62
2021/08/28 11:52:37;;;;;;;1.30;1.20;;;;;;;;;;5078084;28;20040;-61
2021/08/28 11:55:05;;;;;;;1.27;1.17;;;;;;;;;;5096090;28;20063;-62
2021/08/28 11:57:35;;;;;;;1.00;1.00;;;;;;;;;;5096251;28;20032;-62
2021/08/28 12:00:00;;;;;;;1.40;0.97;;;;;;;;;;5096083;28;20489;-62
2021/08/28 12:02:26;;;;;;;1.73;1.10;;;;;;;;;;5096059;28;20032;-62
2021/08/28 12:04:51;;;;;;;2.33;1.30;;;;;;;;;;5096037;28;20048;-62
2021/08/28 12:07:17;;;;;;;1.23;1.13;;;;;;;;;;5095186;28;20062;-62
2021/08/28 12:09:43;;;;;;;2.25;1.20;;;;;;;;;;5095782;28;20035;-63
2021/08/28 12:12:08;;;;;;;1.38;1.33;;;;;;;;;;5095445;28;20126;-62
2021/08/28 12:14:34;;;;;;;1.80;1.30;;;;;;;;;;5095656;28;20036;-62
2021/08/28 12:17:01;;;;;;;1.40;1.30;;;;;;;;;;5095938;28;20385;-62
2021/08/28 12:19:29;;;;;;;1.10;1.00;;;;;;;;;;5096006;28;20028;-63
2021/08/28 12:22:04;;;;;;;0.90;0.90;;;;;;;;;;5090783;28;20035;-62
2021/08/28 12:24:30;;;;;;;0.98;0.90;;;;;;;;;;5080792;28;20035;-61
2021/08/28 12:26:55;;;;;;;1.10;1.10;;;;;;;;;;5115294;28;20070;-63
2021/08/28 12:29:25;;;;;;;1.73;1.27;;;;;;;;;;5097931;28;20359;-61
2021/08/28 12:31:52;;;;;;;1.38;1.30;;;;;;;;;;5115829;28;20027;-63
2021/08/28 12:34:21;;;;;;;1.25;1.15;;;;;;;;;;5115875;28;20385;-62
2021/08/28 12:36:47;;;;;;;2.42;1.40;;;;;;;;;;5097656;28;20089;-62
2021/08/28 12:39:13;;;;;;;1.50;1.10;;;;;;;;;;5115725;28;20428;-62
2021/08/28 12:41:39;;;;;;;1.40;1.30;;;;;;;;;;5115585;28;20040;-62
2021/08/28 12:44:05;;;;;;;1.27;1.17;;;;;;;;;;5115629;28;20024;-61
2021/08/28 12:46:34;;;;;;;1.13;1.10;;;;;;;;;;5097187;28;20050;-62
2021/08/28 12:49:09;;;;;;;0.93;0.93;;;;;;;;;;5115529;28;20039;-62
2021/08/28 12:51:35;;;;;;;1.23;1.13;;;;;;;;;;5115850;28;20035;-61
2021/08/28 12:54:01;;;;;;;2.00;1.02;;;;;;;;;;5115768;28;20113;-61
2021/08/28 12:56:27;;;;;;;1.00;1.00;;;;;;;;;;5115469;28;20516;-62
2021/08/28 12:58:59;;;;;;;1.30;1.20;;;;;;;;;;5114324;28;20032;-62
2021/08/28 13:01:25;;;;;;;1.20;1.10;;;;;;;;;;5103503;28;20058;-62
2021/08/28 13:03:51;;;;;;;1.20;1.20;;;;;;;;;;5108853;28;20032;-62
2021/08/28 13:06:18;;;;;;;0.93;0.93;;;;;;;;;;5079685;28;20040;-62
2021/08/28 13:08:43;;;;;;;0.80;0.80;;;;;;;;;;5115034;28;20024;-62
2021/08/28 13:11:22;;;;;;;1.40;0.90;;;;;;;;;;5100156;28;20081;-71
2021/08/28 13:13:56;;;;;;;1.10;0.95;;;;;;;;;;5102322;28;20031;-71
2021/08/28 13:16:22;;;;;;;1.30;1.10;;;;;;;;;;5093461;28;20032;-71
2021/08/28 13:19:07;;;;;;;0.90;0.90;;;;;;;;;;5101462;28;20089;-71
2021/08/28 13:21:39;;;;;;;1.05;0.95;;;;;;;;;;5094427;28;20123;-71
2021/08/28 13:24:15;;;;;;;0.95;0.95;;;;;;;;;;5076476;28;20102;-71
2021/08/28 13:27:00;;;;;;;0.70;0.70;;;;;;;;;;5094357;28;20032;-70
2021/08/28 13:29:26;;;;;;;1.20;1.10;;;;;;;;;;5094694;28;20044;-71
2021/08/28 13:32:07;;;;;;;3.42;0.93;;;;;;;;;;5076350;28;20047;-71
2021/08/28 13:34:39;;;;;;;1.48;0.80;;;;;;;;;;5076279;28;20032;-71
2021/08/28 13:37:06;;;;;;;1.20;1.05;;;;;;;;;;5094323;28;20055;-71
2021/08/28 13:39:32;;;;;;;1.08;0.75;;;;;;;;;;5094678;28;20039;-71
2021/08/28 13:41:58;;;;;;;0.90;0.90;;;;;;;;;;5093948;28;20044;-71
2021/08/28 13:44:23;;;;;;;1.02;0.98;;;;;;;;;;5075086;28;20030;-70
2021/08/28 13:46:49;;;;;;;1.05;0.90;;;;;;;;;;5093865;28;20433;-71
2021/08/28 13:49:14;;;;;;;1.20;1.15;;;;;;;;;;5094184;28;20119;-71
2021/08/28 13:51:40;;;;;;;2.25;1.08;;;;;;;;;;5076124;28;20138;-71
2021/08/28 13:54:05;;;;;;;1.10;1.00;;;;;;;;;;5093753;28;20055;-71
2021/08/28 13:56:30;;;;;;;2.33;1.10;;;;;;;;;;5093825;28;20523;-71
2021/08/28 13:58:57;;;;;;;0.95;0.95;;;;;;;;;;5097488;28;20091;-71
2021/08/28 14:01:22;;;;;;;1.77;0.95;;;;;;;;;;5094201;28;20044;-71
2021/08/28 14:03:49;;;;;;;2.65;0.95;;;;;;;;;;5093991;28;20042;-71
2021/08/28 14:06:14;;;;;;;1.02;0.98;;;;;;;;;;5093783;28;20044;-71
2021/08/28 14:08:40;;;;;;;1.67;0.80;;;;;;;;;;5099730;28;20077;-71
2021/08/28 14:11:05;;;;;;;0.73;0.70;;;;;;;;;;5095053;28;20181;-71
2021/08/28 14:13:30;;;;;;;2.75;1.40;;;;;;;;;;5095852;28;20039;-71
2021/08/28 14:15:56;;;;;;;2.53;0.98;;;;;;;;;;5095190;28;20028;-62
2021/08/28 14:18:22;;;;;;;1.27;1.08;;;;;;;;;;5114172;28;20062;-62
2021/08/28 14:20:48;;;;;;;1.20;1.10;;;;;;;;;;5095647;28;20050;-62
2021/08/28 14:23:13;;;;;;;1.70;0.93;;;;;;;;;;5113840;28;20028;-61
2021/08/28 14:25:39;;;;;;;1.52;1.20;;;;;;;;;;5095590;28;20046;-61
2021/08/28 14:28:04;;;;;;;0.75;0.75;;;;;;;;;;5113906;28;20048;-62
2021/08/28 17:57:26;;;;;;;32.30;16.63;;;;;;;;;;5106492;28;20558;-62
2021/08/28 17:59:51;;;;;;;22.35;13.77;;;;;;;;;;5110834;28;20032;-62
2021/08/28 18:02:17;;;;;;;22.17;12.52;;;;;;;;;;5111977;28;20047;-70
2021/08/28 18:04:43;;;;;;;19.80;11.45;;;;;;;;;;5106839;28;20035;-70
2021/08/28 18:07:09;;;;;;;23.02;12.93;;;;;;;;;;5107176;28;20048;-70
2021/08/28 18:09:34;;;;;;;42.83;19.90;;;;;;;;;;5107302;28;20110;-70
2021/08/28 18:12:00;;;;;;;49.88;25.30;;;;;;;;;;5106884;28;20035;-69
2021/08/28 18:14:25;;;;;;;51.13;24.25;;;;;;;;;;5107221;28;20047;-70
2021/08/28 18:16:51;;;;;;;34.45;16.80;;;;;;;;;;5106798;28;20067;-71
2021/08/28 18:19:17;;;;;;;19.92;12.00;;;;;;;;;;5106444;28;20059;-70
2021/08/28 18:21:43;;;;;;;36.38;19.92;;;;;;;;;;5107307;28;20664;-70
2021/08/28 18:24:08;;;;;;;29.55;16.98;;;;;;;;;;5107106;28;20020;-71
2021/08/28 18:26:34;;;;;;;41.97;20.63;;;;;;;;;;5087832;28;20096;-71
2021/08/28 18:28:59;;;;;;;48.30;25.80;;;;;;;;;;5107255;28;20031;-70
2021/08/28 18:31:25;;;;;;;40.65;22.35;;;;;;;;;;5088679;28;20055;-70
2021/08/28 18:33:50;;;;;;;37.70;21.98;;;;;;;;;;5106876;28;20047;-71
2021/08/28 18:36:16;;;;;;;39.58;22.27;;;;;;;;;;5088134;28;20078;-71
2021/08/28 18:38:41;;;;;;;31.48;19.67;;;;;;;;;;5088708;28;20035;-70
2021/08/28 18:41:07;;;;;;;44.70;24.15;;;;;;;;;;5088447;28;20040;-70
2021/08/28 18:43:32;;;;;;;36.60;20.88;;;;;;;;;;5088732;28;20092;-71
2021/08/28 18:45:58;;;;;;;37.78;18.80;;;;;;;;;;5088323;28;20071;-70
2021/08/28 18:48:23;;;;;;;58.50;29.17;;;;;;;;;;5106403;28;20036;-70
2021/08/28 18:50:49;;;;;;;38.35;21.60;;;;;;;;;;5106607;28;20039;-71
2021/08/28 18:53:15;;;;;;;61.60;26.83;;;;;;;;;;5106886;28;20027;-71
2021/08/28 18:55:40;;;;;;;40.10;19.60;;;;;;;;;;5106310;28;20031;-72
2021/08/28 18:58:06;;;;;;;27.33;15.18;;;;;;;;;;5088092;28;20204;-72
2021/08/28 19:00:31;;;;;;;39.40;22.27;;;;;;;;;;5106789;28;20043;-71
2021/08/28 19:02:57;;;;;;;51.75;26.02;;;;;;;;;;5106801;28;20166;-72
2021/08/28 19:05:22;;;;;;;78.00;42.47;;;;;;;;;;5071060;28;20044;-72
2021/08/28 19:07:48;;;;;;;45.38;23.63;;;;;;;;;;5071333;28;20393;-72
2021/08/28 19:10:14;;;;;;;31.02;20.13;;;;;;;;;;5087723;28;20055;-72
2021/08/28 19:12:39;;;;;;;46.28;23.45;;;;;;;;;;5106868;28;20106;-72
2021/08/28 19:15:06;;;;;;;38.85;23.70;;;;;;;;;;5106866;28;20039;-72
2021/08/28 19:17:34;;;;;;;65.47;39.85;;;;;;;;;;5105684;28;20024;-73
2021/08/28 19:20:00;;;;;;;60.88;35.95;;;;;;;;;;5106595;28;20040;-72
2021/08/28 19:22:25;;;;;;;67.28;31.63;;;;;;;;;;5106700;28;20378;-72
2021/08/28 19:24:51;;;;;;;151.38;56.63;;;;;;;;;;5106273;28;20040;-72
2021/08/28 19:27:17;;;;;;;209.18;70.63;;;;;;;;;;5105936;28;20075;-73
2021/08/28 19:29:43;;;;;;;146.43;54.28;;;;;;;;;;5106772;28;20447;-72
2021/08/28 19:32:08;;;;;;;202.63;62.85;;;;;;;;;;5106511;28;20032;-73
2021/08/28 19:34:34;;;;;;;131.52;45.45;;;;;;;;;;5088300;28;20134;-72
2021/08/28 19:36:59;;;;;;;68.28;23.90;;;;;;;;;;5087650;28;20034;-71
2021/08/28 19:39:26;;;;;;;105.25;35.97;;;;;;;;;;5105716;28;20032;-67
2021/08/28 19:41:51;;;;;;;112.53;41.80;;;;;;;;;;5111101;28;20019;-69
2021/08/28 19:44:17;;;;;;;242.82;67.88;;;;;;;;;;5116957;28;20047;-67
2021/08/28 19:46:42;;;;;;;248.65;70.90;;;;;;;;;;5116817;28;20077;-68
2021/08/28 19:49:08;;;;;;;48.30;22.30;;;;;;;;;;5116683;28;20053;-68
2021/08/28 19:51:33;;;;;;;19.50;10.48;;;;;;;;;;5098644;28;20405;-67
2021/08/28 19:53:59;;;;;;;15.40;10.18;;;;;;;;;;5116495;28;20374;-68
2021/08/28 19:56:24;;;;;;;29.05;18.40;;;;;;;;;;5116434;28;20108;-64
2021/08/28 19:58:50;;;;;;;28.33;18.38;;;;;;;;;;5098018;28;20185;-65
2021/08/28 20:01:15;;;;;;;35.58;18.38;;;;;;;;;;5116399;28;20031;-65
2021/08/28 20:03:42;;;;;;;45.30;22.58;;;;;;;;;;5116317;28;20058;-65
2021/08/28 20:06:08;;;;;;;32.15;18.70;;;;;;;;;;5098064;28;20416;-65
2021/08/28 20:08:33;;;;;;;39.13;24.52;;;;;;;;;;5115851;28;20088;-66
2021/08/28 20:10:59;;;;;;;31.27;20.00;;;;;;;;;;5116234;28;20027;-66
2021/08/28 20:13:25;;;;;;;24.58;15.13;;;;;;;;;;5116244;28;20081;-66
2021/08/28 20:15:50;;;;;;;17.75;12.18;;;;;;;;;;5115996;28;20080;-66
2021/08/28 20:18:16;;;;;;;19.10;12.35;;;;;;;;;;5115940;28;20048;-64
2021/08/28 20:20:41;;;;;;;19.67;12.40;;;;;;;;;;5116266;28;20129;-64
2021/08/28 20:23:07;;;;;;;22.17;13.88;;;;;;;;;;5116059;28;20023;-62
2021/08/28 20:25:32;;;;;;;22.02;14.50;;;;;;;;;;5116012;28;20019;-70
2021/08/28 20:27:58;;;;;;;22.63;13.63;;;;;;;;;;5115571;28;20398;-70
2021/08/28 20:30:24;;;;;;;18.13;12.02;;;;;;;;;;5115807;28;20031;-70
2021/08/28 20:32:49;;;;;;;39.88;18.27;;;;;;;;;;5115551;28;20051;-71
2021/08/28 20:35:14;;;;;;;104.05;42.65;;;;;;;;;;5097479;28;20438;-63
2021/08/28 20:37:40;;;;;;;78.75;37.00;;;;;;;;;;5115598;28;20496;-63
2021/08/28 20:40:07;;;;;;;38.33;23.08;;;;;;;;;;5115459;28;20028;-64
2021/08/28 20:42:32;;;;;;;18.13;9.30;;;;;;;;;;5115504;28;20040;-64
2021/08/28 20:44:58;;;;;;;19.10;9.63;;;;;;;;;;5115521;28;20474;-64
2021/08/28 20:47:25;;;;;;;12.60;8.85;;;;;;;;;;5115608;28;20402;-64
2021/08/28 20:49:50;;;;;;;14.23;9.55;;;;;;;;;;5115408;28;20484;-64
2021/08/28 20:52:16;;;;;;;10.95;6.82;;;;;;;;;;5114395;28;20036;-64
2021/08/28 20:54:41;;;;;;;8.57;6.30;;;;;;;;;;5114435;28;20042;-64
2021/08/28 20:57:07;;;;;;;13.82;7.18;;;;;;;;;;5115185;28;20035;-64
2021/08/28 20:59:32;;;;;;;12.18;7.35;;;;;;;;;;5096791;28;20051;-64
2021/08/28 21:01:58;;;;;;;17.75;8.82;;;;;;;;;;5115112;28;20393;-64
2021/08/28 21:04:23;;;;;;;17.85;8.65;;;;;;;;;;5115253;28;20024;-66
2021/08/28 21:06:50;;;;;;;17.25;8.55;;;;;;;;;;5115142;28;20043;-64
2021/08/28 21:09:15;;;;;;;13.35;9.30;;;;;;;;;;5114974;28;20496;-64
2021/08/28 21:11:41;;;;;;;26.02;14.02;;;;;;;;;;5115000;28;20135;-65
2021/08/28 21:14:07;;;;;;;27.50;13.98;;;;;;;;;;5114902;28;20028;-65
2021/08/28 21:16:32;;;;;;;52.78;24.25;;;;;;;;;;5096652;28;20035;-65
2021/08/28 21:18:58;;;;;;;44.45;22.20;;;;;;;;;;5115126;28;20023;-65
2021/08/28 21:21:23;;;;;;;23.88;14.98;;;;;;;;;;5114791;28;20032;-64
2021/08/28 21:23:49;;;;;;;35.40;20.98;;;;;;;;;;5096801;28;20101;-64
2021/08/28 21:26:14;;;;;;;26.77;19.45;;;;;;;;;;5114658;28;20067;-64
2021/08/28 21:28:40;;;;;;;59.92;31.63;;;;;;;;;;5114409;28;20062;-64
2021/08/28 21:31:05;;;;;;;66.03;35.25;;;;;;;;;;5114523;28;20035;-64
2021/08/28 21:33:31;;;;;;;34.90;20.80;;;;;;;;;;5114599;28;20019;-64
2021/08/28 21:35:56;;;;;;;30.70;19.52;;;;;;;;;;5096552;28;20054;-64
2021/08/28 21:38:22;;;;;;;17.88;12.43;;;;;;;;;;5096623;28;20040;-64
2021/08/28 21:40:48;;;;;;;15.65;9.90;;;;;;;;;;5114875;28;20035;-64
2021/08/28 21:43:13;;;;;;;17.70;10.98;;;;;;;;;;5114416;28;20030;-65
2021/08/28 21:45:39;;;;;;;17.73;11.20;;;;;;;;;;5114558;28;20045;-65
2021/08/28 21:48:05;;;;;;;15.38;10.88;;;;;;;;;;5114435;28;20466;-64
2021/08/28 21:50:30;;;;;;;15.82;11.40;;;;;;;;;;5114629;28;20055;-65
2021/08/28 21:52:56;;;;;;;14.32;9.27;;;;;;;;;;5114327;28;20038;-65
2021/08/28 21:55:21;;;;;;;11.50;8.90;;;;;;;;;;5114330;28;20385;-65
2021/08/28 21:57:47;;;;;;;11.50;7.93;;;;;;;;;;5096077;28;20024;-65
2021/08/28 22:00:17;;;;;;;11.40;9.00;;;;;;;;;;5114254;28;20066;-65
2021/08/28 22:02:42;;;;;;;12.02;8.27;;;;;;;;;;5114400;28;20046;-65
2021/08/28 22:05:08;;;;;;;18.65;10.40;;;;;;;;;;5113999;28;20110;-65
2021/08/28 22:07:33;;;;;;;37.22;22.30;;;;;;;;;;5113971;28;20436;-65
2021/08/28 22:09:59;;;;;;;22.15;14.63;;;;;;;;;;5114156;28;20407;-65
2021/08/28 22:12:24;;;;;;;10.32;8.00;;;;;;;;;;5113862;28;20385;-64
2021/08/28 22:14:50;;;;;;;9.38;7.45;;;;;;;;;;5114022;28;20469;-64
2021/08/28 22:17:15;;;;;;;30.13;15.80;;;;;;;;;;5114186;28;20073;-64
2021/08/28 22:19:41;;;;;;;15.52;9.35;;;;;;;;;;5113907;28;20046;-64
2021/08/28 22:22:06;;;;;;;33.85;16.60;;;;;;;;;;5114044;28;20473;-63
2021/08/28 22:24:32;;;;;;;97.18;49.63;;;;;;;;;;5113784;28;20031;-64
2021/08/28 22:26:57;;;;;;;58.85;33.10;;;;;;;;;;5095393;28;20116;-63
2021/08/28 22:29:23;;;;;;;27.38;16.23;;;;;;;;;;5114097;28;20039;-64
2021/08/28 22:31:48;;;;;;;43.25;23.65;;;;;;;;;;5113846;28;20045;-64
2021/08/28 22:34:14;;;;;;;20.23;12.88;;;;;;;;;;5114158;28;20032;-63
2021/08/28 22:36:39;;;;;;;14.23;10.07;;;;;;;;;;5114072;28;20445;-63
2021/08/28 22:39:05;;;;;;;9.88;7.50;;;;;;;;;;5113879;28;20389;-64
2021/08/28 22:41:30;;;;;;;10.40;7.35;;;;;;;;;;5113672;28;20028;-64
2021/08/28 22:43:56;;;;;;;11.52;7.72;;;;;;;;;;5113620;28;20088;-64
2021/08/28 22:46:21;;;;;;;10.32;7.25;;;;;;;;;;5113652;28;20106;-64
2021/08/28 22:48:47;;;;;;;10.88;7.85;;;;;;;;;;5113523;28;20367;-64
2021/08/28 22:51:12;;;;;;;11.85;8.60;;;;;;;;;;5113460;28;20096;-65
2021/08/28 22:53:38;;;;;;;17.30;11.00;;;;;;;;;;5113533;28;20416;-63
2021/08/28 22:56:03;;;;;;;14.82;10.38;;;;;;;;;;5113597;28;20488;-64
2021/08/28 22:58:29;;;;;;;12.32;8.10;;;;;;;;;;5113669;28;20034;-64
2021/08/28 23:00:54;;;;;;;9.65;7.75;;;;;;;;;;5113506;28;20024;-65
2021/08/28 23:03:20;;;;;;;12.50;8.02;;;;;;;;;;5113358;28;20032;-64
2021/08/28 23:05:45;;;;;;;9.40;7.72;;;;;;;;;;5113306;28;20390;-64
2021/08/28 23:08:11;;;;;;;14.20;7.43;;;;;;;;;;5113485;28;20032;-64
2021/08/28 23:10:36;;;;;;;10.90;7.28;;;;;;;;;;5113387;28;20026;-64
2021/08/28 23:13:02;;;;;;;11.68;8.60;;;;;;;;;;5113346;28;20059;-65
2021/08/28 23:15:27;;;;;;;10.82;7.97;;;;;;;;;;5095141;28;20027;-65
2021/08/28 23:17:53;;;;;;;15.93;8.32;;;;;;;;;;5116733;28;20028;-65
2021/08/28 23:20:18;;;;;;;11.70;8.50;;;;;;;;;;5099083;28;20023;-71
2021/08/28 23:22:44;;;;;;;11.95;8.23;;;;;;;;;;5117459;28;20038;-71
2021/08/28 23:25:09;;;;;;;104.95;41.92;;;;;;;;;;5117517;28;20084;-71
2021/08/28 23:27:35;;;;;;;17.30;10.13;;;;;;;;;;5098198;28;20075;-71
2021/08/28 23:30:01;;;;;;;39.67;18.83;;;;;;;;;;5117321;28;20040;-72